createdAt,value
2023-01-29T00:01:35.961Z,72.79
2023-01-29T00:04:04.105Z,72.73
2023-01-29T00:06:32.616Z,72.44
2023-01-29T00:09:02.042Z,72.78
2023-01-29T00:11:31.542Z,72.93
2023-01-29T00:14:00.002Z,72.68
2023-01-29T00:16:28.260Z,72.38
2023-01-29T00:18:56.444Z,72.31
2023-01-29T00:21:24.990Z,72.02
2023-01-29T00:23:53.121Z,71.70
2023-01-29T00:26:22.504Z,72.05
2023-01-29T00:28:50.630Z,71.95
2023-01-29T00:31:19.395Z,71.96
2023-01-29T00:33:47.626Z,72.18
2023-01-29T00:36:17.329Z,71.95
2023-01-29T00:38:46.574Z,72.36
2023-01-29T00:41:32.833Z,72.47
2023-01-29T00:44:25.316Z,71.98
2023-01-29T00:46:53.481Z,72.41
2023-01-29T00:49:21.694Z,72.90
2023-01-29T00:52:09.769Z,73.18
2023-01-29T00:57:40.560Z,73.41
2023-01-29T01:00:12.549Z,72.88
2023-01-29T01:02:58.102Z,73.14
2023-01-29T01:05:26.185Z,72.89
2023-01-29T01:07:55.751Z,72.86
2023-01-29T01:10:24.375Z,73.05
2023-01-29T01:12:54.597Z,73.29
2023-01-29T01:15:24.629Z,72.56
2023-01-29T01:17:56.340Z,72.60
2023-01-29T01:20:24.618Z,72.70
2023-01-29T01:22:52.901Z,72.42
2023-01-29T01:25:21.442Z,72.24
2023-01-29T01:27:49.400Z,71.93
2023-01-29T01:30:18.016Z,72.05
2023-01-29T01:32:47.707Z,72.00
2023-01-29T01:35:16.190Z,71.36
2023-01-29T01:37:44.422Z,70.54
2023-01-29T01:40:18.426Z,70.73
2023-01-29T01:42:48.644Z,70.31
2023-01-29T01:45:20.867Z,70.01
2023-01-29T01:47:52.660Z,69.69
2023-01-29T01:50:23.737Z,69.27
2023-01-29T01:52:54.341Z,69.41
2023-01-29T01:55:24.383Z,69.03
2023-01-29T01:57:54.238Z,68.88
2023-01-29T02:00:23.625Z,68.67
2023-01-29T02:03:10.299Z,68.51
2023-01-29T02:05:56.316Z,68.66
2023-01-29T02:08:46.035Z,68.31
2023-01-29T02:11:14.495Z,68.15
2023-01-29T02:13:42.967Z,68.15
2023-01-29T02:16:11.070Z,68.07
2023-01-29T02:18:40.473Z,68.00
2023-01-29T02:21:25.515Z,67.91
2023-01-29T02:27:01.494Z,68.11
2023-01-29T02:29:35.510Z,68.22
2023-01-29T02:32:10.222Z,67.81
2023-01-29T02:34:59.967Z,67.72
2023-01-29T02:37:36.167Z,67.41
2023-01-29T02:40:08.728Z,67.40
2023-01-29T02:42:38.108Z,67.47
2023-01-29T02:45:11.848Z,66.79
2023-01-29T02:47:46.855Z,66.77
2023-01-29T02:50:19.147Z,67.25
2023-01-29T02:52:54.335Z,67.25
2023-01-29T02:55:24.702Z,66.66
2023-01-29T02:57:54.607Z,66.86
2023-01-29T03:00:27.641Z,66.70
2023-01-29T03:02:59.991Z,66.88
2023-01-29T03:05:30.275Z,67.09
2023-01-29T03:08:02.673Z,66.61
2023-01-29T03:10:33.553Z,66.79
2023-01-29T03:13:04.678Z,66.70
2023-01-29T03:15:39.218Z,66.64
2023-01-29T03:18:10.059Z,66.52
2023-01-29T03:20:41.372Z,66.32
2023-01-29T03:23:12.580Z,66.18
2023-01-29T03:25:59.591Z,66.25
2023-01-29T03:28:46.733Z,66.22
2023-01-29T03:31:34.490Z,66.26
2023-01-29T03:34:06.614Z,66.80
2023-01-29T03:36:39.969Z,66.71
2023-01-29T03:39:08.786Z,66.82
2023-01-29T03:41:39.218Z,66.32
2023-01-29T03:44:11.549Z,66.37
2023-01-29T03:46:44.888Z,66.47
2023-01-29T03:49:16.929Z,66.33
2023-01-29T03:51:52.725Z,66.45
2023-01-29T03:54:26.662Z,66.34
2023-01-29T03:56:58.859Z,66.65
2023-01-29T03:59:33.151Z,66.32
2023-01-29T04:02:04.690Z,66.10
2023-01-29T04:04:34.283Z,66.64
2023-01-29T04:07:05.657Z,66.38
2023-01-29T04:09:35.641Z,66.71
2023-01-29T04:12:05.423Z,66.40
2023-01-29T04:14:34.313Z,66.32
2023-01-29T04:17:08.564Z,66.34
2023-01-29T04:19:37.199Z,66.63
2023-01-29T04:22:06.906Z,66.55
2023-01-29T04:24:35.846Z,66.43
2023-01-29T04:27:21.930Z,66.74
2023-01-29T04:29:59.299Z,66.66
2023-01-29T04:32:33.444Z,66.60
2023-01-29T04:35:02.794Z,66.93
2023-01-29T04:37:36.825Z,66.43
2023-01-29T04:40:10.952Z,66.74
2023-01-29T04:42:44.185Z,66.84
2023-01-29T04:45:17.949Z,66.73
2023-01-29T04:47:52.013Z,66.53
2023-01-29T04:50:25.899Z,66.80
2023-01-29T04:52:57.181Z,66.79
2023-01-29T04:55:31.630Z,66.78
2023-01-29T04:58:04.713Z,67.10
2023-01-29T05:00:35.216Z,67.27
2023-01-29T05:03:05.320Z,66.79
2023-01-29T05:05:33.790Z,67.21
2023-01-29T05:08:01.878Z,66.89
2023-01-29T05:10:30.748Z,67.38
2023-01-29T05:13:01.278Z,66.98
2023-01-29T05:15:33.077Z,67.26
2023-01-29T05:18:03.126Z,67.41
2023-01-29T05:20:34.537Z,67.29
2023-01-29T05:23:02.546Z,67.46
2023-01-29T05:25:31.706Z,67.71
2023-01-29T05:28:04.933Z,68.01
2023-01-29T05:30:33.935Z,67.45
2023-01-29T05:33:02.275Z,67.57
2023-01-29T05:35:30.955Z,67.77
2023-01-29T05:38:00.383Z,67.62
2023-01-29T05:40:28.500Z,67.39
2023-01-29T05:42:56.692Z,67.35
2023-01-29T05:48:14.004Z,67.65
2023-01-29T05:50:41.878Z,67.64
2023-01-29T05:53:11.415Z,67.56
2023-01-29T05:55:41.892Z,67.50
2023-01-29T05:58:10.008Z,67.67
2023-01-29T06:00:37.896Z,67.44
2023-01-29T06:03:06.755Z,67.63
2023-01-29T06:05:35.144Z,67.54
2023-01-29T06:08:03.191Z,68.04
2023-01-29T06:10:32.965Z,67.69
2023-01-29T06:13:01.002Z,67.63
2023-01-29T06:15:29.057Z,67.85
2023-01-29T06:17:57.482Z,67.56
2023-01-29T06:20:26.110Z,67.51
2023-01-29T06:22:54.410Z,67.54
2023-01-29T06:25:22.309Z,67.45
2023-01-29T06:27:53.129Z,67.65
2023-01-29T06:30:23.507Z,67.47
2023-01-29T06:32:51.360Z,67.37
2023-01-29T06:35:19.311Z,67.49
2023-01-29T06:37:47.221Z,67.22
2023-01-29T06:40:15.724Z,66.92
2023-01-29T06:42:46.056Z,66.73
2023-01-29T06:45:15.877Z,66.69
2023-01-29T06:47:43.702Z,66.76
2023-01-29T06:50:12.510Z,66.38
2023-01-29T06:52:40.377Z,66.31
2023-01-29T06:55:08.688Z,66.25
2023-01-29T06:57:36.827Z,66.38
2023-01-29T07:00:06.571Z,66.25
2023-01-29T07:02:36.059Z,65.84
2023-01-29T07:05:04.099Z,66.11
2023-01-29T07:07:32.144Z,66.26
2023-01-29T07:10:00.121Z,65.96
2023-01-29T07:12:28.219Z,66.09
2023-01-29T07:14:56.144Z,65.75
2023-01-29T07:17:24.239Z,65.65
2023-01-29T07:19:53.656Z,65.93
2023-01-29T07:22:21.771Z,65.57
2023-01-29T07:24:50.198Z,65.60
2023-01-29T07:27:18.101Z,64.93
2023-01-29T07:29:46.375Z,64.68
2023-01-29T07:32:14.584Z,65.12
2023-01-29T07:34:42.636Z,64.59
2023-01-29T07:37:12.607Z,64.72
2023-01-29T07:39:40.641Z,64.64
2023-01-29T07:42:08.707Z,64.70
2023-01-29T07:44:37.024Z,64.64
2023-01-29T07:47:05.141Z,64.62
2023-01-29T07:49:33.235Z,64.34
2023-01-29T07:52:01.293Z,64.41
2023-01-29T07:54:30.825Z,64.22
2023-01-29T07:56:58.775Z,63.92
2023-01-29T07:59:26.885Z,64.10
2023-01-29T08:01:54.846Z,63.71
2023-01-29T08:04:23.502Z,63.67
2023-01-29T08:06:51.742Z,63.25
2023-01-29T08:09:19.616Z,63.31
2023-01-29T08:11:49.250Z,63.41
2023-01-29T08:14:17.219Z,62.77
2023-01-29T08:16:45.521Z,62.69
2023-01-29T08:19:13.658Z,62.59
2023-01-29T08:21:42.019Z,61.88
2023-01-29T08:24:10.401Z,62.26
2023-01-29T08:26:38.594Z,62.10
2023-01-29T08:29:07.986Z,62.20
2023-01-29T08:31:36.418Z,61.94
2023-01-29T08:34:04.883Z,61.87
2023-01-29T08:36:32.964Z,61.72
2023-01-29T08:39:00.989Z,61.62
2023-01-29T08:41:29.058Z,61.97
2023-01-29T08:43:57.886Z,61.77
2023-01-29T08:46:27.373Z,61.78
2023-01-29T08:48:55.561Z,61.67
2023-01-29T08:51:23.539Z,62.01
2023-01-29T08:53:51.716Z,61.70
2023-01-29T08:56:19.720Z,61.44
2023-01-29T08:58:59.283Z,61.54
2023-01-29T09:04:29.430Z,60.83
2023-01-29T09:06:57.559Z,60.43
2023-01-29T09:09:25.591Z,59.99
2023-01-29T09:11:53.766Z,60.75
2023-01-29T09:14:21.909Z,60.01
2023-01-29T09:17:00.519Z,60.53
2023-01-29T09:19:30.315Z,60.41
2023-01-29T09:22:00.704Z,60.33
2023-01-29T09:24:28.829Z,60.51
2023-01-29T09:26:56.887Z,60.64
2023-01-29T09:29:26.092Z,60.73
2023-01-29T09:31:54.320Z,60.61
2023-01-29T09:34:22.525Z,60.64
2023-01-29T09:36:53.322Z,60.56
2023-01-29T09:39:21.320Z,59.63
2023-01-29T09:41:54.482Z,59.91
2023-01-29T09:44:28.199Z,60.24
2023-01-29T09:46:57.394Z,60.09
2023-01-29T09:49:28.861Z,59.93
2023-01-29T09:52:00.394Z,59.81
2023-01-29T09:54:31.135Z,60.04
2023-01-29T09:56:59.444Z,59.80
2023-01-29T09:59:28.774Z,59.42
2023-01-29T10:02:01.324Z,59.72
2023-01-29T10:04:41.611Z,59.02
2023-01-29T10:07:21.584Z,59.66
2023-01-29T10:09:59.497Z,59.75
2023-01-29T10:12:41.918Z,59.19
2023-01-29T10:15:21.142Z,59.35
2023-01-29T10:17:56.959Z,58.92
2023-01-29T10:20:34.574Z,58.45
2023-01-29T10:23:16.847Z,58.90
2023-01-29T10:25:46.388Z,58.80
2023-01-29T10:28:17.795Z,59.13
2023-01-29T10:30:51.177Z,58.81
2023-01-29T10:33:20.644Z,58.71
2023-01-29T10:35:53.790Z,58.79
2023-01-29T10:38:29.928Z,58.31
2023-01-29T10:41:02.138Z,58.63
2023-01-29T10:43:38.783Z,58.25
2023-01-29T10:46:12.688Z,58.19
2023-01-29T10:48:55.323Z,58.69
2023-01-29T10:51:35.267Z,57.91
2023-01-29T10:54:13.586Z,58.14
2023-01-29T10:56:47.328Z,58.36
2023-01-29T10:59:25.475Z,58.30
2023-01-29T11:01:55.300Z,58.25
2023-01-29T11:04:26.766Z,57.97
2023-01-29T11:06:57.472Z,58.20
2023-01-29T11:12:11.599Z,58.64
2023-01-29T11:14:44.011Z,58.65
2023-01-29T11:17:16.646Z,58.33
2023-01-29T11:19:45.498Z,58.37
2023-01-29T11:22:17.628Z,58.52
2023-01-29T11:24:47.554Z,58.57
2023-01-29T11:27:17.452Z,58.62
2023-01-29T11:29:48.323Z,58.63
2023-01-29T11:32:26.407Z,58.95
2023-01-29T11:34:59.147Z,58.99
2023-01-29T11:37:36.010Z,58.74
2023-01-29T11:40:28.016Z,58.43
2023-01-29T11:42:55.942Z,58.33
2023-01-29T11:45:27.551Z,58.35
2023-01-29T11:47:56.953Z,58.79
2023-01-29T11:50:27.284Z,59.00
2023-01-29T11:52:56.249Z,59.23
2023-01-29T11:55:29.605Z,59.11
2023-01-29T11:58:05.161Z,59.61
2023-01-29T12:00:34.756Z,60.43
2023-01-29T12:03:07.200Z,60.10
2023-01-29T12:05:35.531Z,60.08
2023-01-29T12:13:41.028Z,59.93
2023-01-29T12:16:14.773Z,60.04
2023-01-29T12:18:45.107Z,60.52
2023-01-29T12:21:16.136Z,60.31
2023-01-29T12:23:48.283Z,60.46
2023-01-29T12:26:17.916Z,60.79
2023-01-29T12:28:51.948Z,60.53
2023-01-29T12:31:28.256Z,60.30
2023-01-29T12:34:01.467Z,60.41
2023-01-29T12:36:33.422Z,61.01
2023-01-29T12:39:01.513Z,61.33
2023-01-29T12:41:36.751Z,62.09
2023-01-29T12:44:08.526Z,61.91
2023-01-29T12:46:40.427Z,61.95
2023-01-29T12:49:13.320Z,62.03
2023-01-29T12:51:46.177Z,62.47
2023-01-29T12:54:16.171Z,63.46
2023-01-29T12:56:47.468Z,63.91
2023-01-29T12:59:21.569Z,63.35
2023-01-29T13:01:51.997Z,63.94
2023-01-29T13:04:26.545Z,63.78
2023-01-29T13:06:59.583Z,63.70
2023-01-29T13:09:29.996Z,64.36
2023-01-29T13:12:00.623Z,65.24
2023-01-29T13:14:34.326Z,64.95
2023-01-29T13:17:09.771Z,64.70
2023-01-29T13:19:39.667Z,64.91
2023-01-29T13:22:13.795Z,64.63
2023-01-29T13:24:47.889Z,64.40
2023-01-29T13:27:22.372Z,64.46
2023-01-29T13:29:52.110Z,64.75
2023-01-29T13:32:22.752Z,65.26
2023-01-29T13:34:52.123Z,64.69
2023-01-29T13:37:23.214Z,64.65
2023-01-29T13:39:52.628Z,64.84
2023-01-29T13:42:21.770Z,64.65
2023-01-29T13:44:52.697Z,64.67
2023-01-29T13:47:25.419Z,64.26
2023-01-29T13:49:57.808Z,64.32
2023-01-29T13:52:31.488Z,64.58
2023-01-29T13:55:01.044Z,64.73
2023-01-29T13:57:37.624Z,64.29
2023-01-29T14:00:08.057Z,64.57
2023-01-29T14:02:36.240Z,65.09
2023-01-29T14:05:23.067Z,64.76
2023-01-29T14:07:52.227Z,64.92
2023-01-29T14:10:21.190Z,65.33
2023-01-29T14:12:53.151Z,64.92
2023-01-29T14:15:24.576Z,64.83
2023-01-29T14:18:16.222Z,65.09
2023-01-29T14:20:53.249Z,64.63
2023-01-29T14:23:28.005Z,65.20
2023-01-29T14:25:56.155Z,65.06
2023-01-29T14:28:25.527Z,64.97
2023-01-29T14:30:55.433Z,64.95
2023-01-29T14:33:26.649Z,64.99
2023-01-29T14:35:56.541Z,64.88
2023-01-29T14:38:25.204Z,65.09
2023-01-29T14:41:03.625Z,65.25
2023-01-29T14:43:31.784Z,65.08
2023-01-29T14:46:23.811Z,65.23
2023-01-29T14:48:52.070Z,65.64
2023-01-29T14:51:21.076Z,65.83
2023-01-29T14:53:57.190Z,65.75
2023-01-29T14:56:29.009Z,66.28
2023-01-29T14:58:58.724Z,66.03
2023-01-29T15:01:30.893Z,66.07
2023-01-29T15:04:01.912Z,65.78
2023-01-29T15:06:33.847Z,66.15
2023-01-29T15:09:14.319Z,66.57
2023-01-29T15:11:48.543Z,66.30
2023-01-29T15:14:24.188Z,66.25
2023-01-29T15:17:03.400Z,66.23
2023-01-29T15:25:16.027Z,66.42
2023-01-29T15:27:45.216Z,66.31
2023-01-29T15:30:16.940Z,67.29
2023-01-29T15:32:47.498Z,66.73
2023-01-29T15:35:21.041Z,66.68
2023-01-29T15:37:59.716Z,66.42
2023-01-29T15:40:28.451Z,67.48
2023-01-29T15:42:56.994Z,67.67
2023-01-29T15:45:26.250Z,68.12
2023-01-29T15:47:57.133Z,68.60
2023-01-29T15:50:25.383Z,68.09
2023-01-29T15:52:55.008Z,68.10
2023-01-29T15:55:24.995Z,67.76
2023-01-29T15:57:53.286Z,68.59
2023-01-29T16:00:23.296Z,67.94
2023-01-29T16:02:51.346Z,68.94
2023-01-29T16:05:23.130Z,69.00
2023-01-29T16:07:51.676Z,68.42
2023-01-29T16:10:21.226Z,68.47
2023-01-29T16:12:51.888Z,68.22
2023-01-29T16:15:23.355Z,68.37
2023-01-29T16:17:52.207Z,68.48
2023-01-29T16:20:32.771Z,68.92
2023-01-29T16:23:01.451Z,69.00
2023-01-29T16:25:30.819Z,68.75
2023-01-29T16:27:59.176Z,69.38
2023-01-29T16:30:28.395Z,69.51
2023-01-29T16:33:02.513Z,69.33
2023-01-29T16:35:32.115Z,69.39
2023-01-29T16:38:02.842Z,69.30
2023-01-29T16:40:33.475Z,69.83
2023-01-29T16:43:41.963Z,69.95
2023-01-29T16:46:18.489Z,69.71
2023-01-29T16:48:46.802Z,69.86
2023-01-29T16:51:18.957Z,70.04
2023-01-29T16:54:11.273Z,69.68
2023-01-29T16:56:40.299Z,69.68
2023-01-29T16:59:13.974Z,69.90
2023-01-29T17:01:42.292Z,69.92
2023-01-29T17:04:12.274Z,69.98
2023-01-29T17:06:42.907Z,70.11
2023-01-29T17:09:20.653Z,70.19
2023-01-29T17:11:50.669Z,70.41
2023-01-29T17:14:20.129Z,70.20
2023-01-29T17:16:51.372Z,70.11
2023-01-29T17:19:21.743Z,70.25
2023-01-29T17:21:51.529Z,71.09
2023-01-29T17:24:19.436Z,70.57
2023-01-29T17:26:48.299Z,70.58
2023-01-29T17:29:19.247Z,70.60
2023-01-29T17:31:47.607Z,70.64
2023-01-29T17:34:16.848Z,70.44
2023-01-29T17:36:45.232Z,70.39
2023-01-29T17:39:18.349Z,70.20
2023-01-29T17:41:47.453Z,70.95
2023-01-29T17:44:15.649Z,70.74
2023-01-29T17:46:43.579Z,70.81
2023-01-29T17:49:20.445Z,70.69
2023-01-29T17:51:49.537Z,71.19
2023-01-29T17:54:18.929Z,71.66
2023-01-29T17:56:46.848Z,72.03
2023-01-29T17:59:15.749Z,71.63
2023-01-29T18:01:43.819Z,71.92
2023-01-29T18:04:12.481Z,72.08
2023-01-29T18:06:41.071Z,71.76
2023-01-29T18:09:09.560Z,71.44
2023-01-29T18:11:40.623Z,71.85
2023-01-29T18:14:14.279Z,71.77
2023-01-29T18:16:43.679Z,71.85
2023-01-29T18:19:15.869Z,71.52
2023-01-29T18:21:43.855Z,71.94
2023-01-29T18:24:11.881Z,72.06
2023-01-29T18:26:41.329Z,71.69
2023-01-29T18:29:09.863Z,71.49
2023-01-29T18:31:37.811Z,71.23
2023-01-29T18:34:05.829Z,71.16
2023-01-29T18:36:33.962Z,71.48
2023-01-29T18:39:01.864Z,71.11
2023-01-29T18:41:30.251Z,71.36
2023-01-29T18:43:59.897Z,70.90
2023-01-29T18:46:28.056Z,71.18
2023-01-29T18:48:56.000Z,70.78
2023-01-29T18:51:24.000Z,70.88
2023-01-29T18:53:52.317Z,70.54
2023-01-29T18:56:20.551Z,70.36
2023-01-29T18:58:52.302Z,70.65
2023-01-29T19:01:23.002Z,70.39
2023-01-29T19:03:50.995Z,70.24
2023-01-29T19:06:18.831Z,70.38
2023-01-29T19:08:47.705Z,71.16
2023-01-29T19:11:15.809Z,70.64
2023-01-29T19:13:43.862Z,70.51
2023-01-29T19:16:13.724Z,71.16
2023-01-29T19:18:43.713Z,70.89
2023-01-29T19:21:12.874Z,71.01
2023-01-29T19:23:41.247Z,70.61
2023-01-29T19:26:09.504Z,70.41
2023-01-29T19:28:37.606Z,70.21
2023-01-29T19:31:06.090Z,70.55
2023-01-29T19:33:34.447Z,71.03
2023-01-29T19:36:04.097Z,71.17
2023-01-29T19:38:33.796Z,71.29
2023-01-29T19:41:01.795Z,70.75
2023-01-29T19:43:32.941Z,71.02
2023-01-29T19:46:01.972Z,70.75
2023-01-29T19:48:29.936Z,70.68
2023-01-29T19:50:59.105Z,70.67
2023-01-29T19:53:29.097Z,70.72
2023-01-29T19:56:01.452Z,70.42
2023-01-29T19:58:30.210Z,70.30
2023-01-29T20:00:58.995Z,70.15
2023-01-29T20:03:28.963Z,70.30
2023-01-29T20:05:57.216Z,70.20
2023-01-29T20:08:25.275Z,70.43
2023-01-29T20:10:54.660Z,70.33
2023-01-29T20:13:22.686Z,70.15
2023-01-29T20:15:51.511Z,70.08
2023-01-29T20:18:19.836Z,69.99
2023-01-29T20:20:48.974Z,70.01
2023-01-29T20:23:27.994Z,69.97
2023-01-29T20:26:05.350Z,70.19
2023-01-29T20:28:33.461Z,69.79
2023-01-29T20:31:01.616Z,69.79
2023-01-29T20:33:30.020Z,69.91
2023-01-29T20:35:59.051Z,69.68
2023-01-29T20:38:30.408Z,69.76
2023-01-29T20:41:03.374Z,69.39
2023-01-29T20:43:33.109Z,69.44
2023-01-29T20:46:01.476Z,69.70
2023-01-29T20:48:29.806Z,69.95
2023-01-29T20:50:58.293Z,69.79
2023-01-29T20:53:26.166Z,69.82
2023-01-29T20:55:54.338Z,70.17
2023-01-29T20:58:22.608Z,69.88
2023-01-29T21:00:52.042Z,70.08
2023-01-29T21:03:20.070Z,70.24
2023-01-29T21:05:47.960Z,70.22
2023-01-29T21:08:16.163Z,70.51
2023-01-29T21:10:45.255Z,70.08
2023-01-29T21:13:16.403Z,70.42
2023-01-29T21:15:44.857Z,70.22
2023-01-29T21:18:14.321Z,70.43
2023-01-29T21:20:42.166Z,69.90
2023-01-29T21:23:10.718Z,70.14
2023-01-29T21:25:39.863Z,69.77
2023-01-29T21:28:08.350Z,69.62
2023-01-29T21:30:36.466Z,69.92
2023-01-29T21:33:04.542Z,69.88
2023-01-29T21:35:36.902Z,70.35
2023-01-29T21:38:05.119Z,70.16
2023-01-29T21:40:33.232Z,70.34
2023-01-29T21:43:12.199Z,70.46
2023-01-29T21:45:40.726Z,70.08
2023-01-29T21:48:09.049Z,70.48
2023-01-29T21:50:38.358Z,70.81
2023-01-29T21:53:06.529Z,70.15
2023-01-29T21:55:34.625Z,70.01
2023-01-29T21:58:02.664Z,69.92
2023-01-29T22:00:30.578Z,69.91
2023-01-29T22:02:58.683Z,70.11
2023-01-29T22:05:26.725Z,70.62
2023-01-29T22:07:56.611Z,70.18
2023-01-29T22:10:24.793Z,70.09
2023-01-29T22:12:52.919Z,70.39
2023-01-29T22:15:23.474Z,70.11
2023-01-29T22:17:51.870Z,70.44
2023-01-29T22:23:13.023Z,70.49
2023-01-29T22:25:41.074Z,70.38
2023-01-29T22:28:09.258Z,70.65
2023-01-29T22:30:37.203Z,70.33
2023-01-29T22:33:05.181Z,70.16
2023-01-29T22:35:33.199Z,70.39
2023-01-29T22:38:01.182Z,70.42
2023-01-29T22:40:30.460Z,70.29
2023-01-29T22:42:59.029Z,70.39
2023-01-29T22:45:27.640Z,69.85
2023-01-29T22:47:55.477Z,70.13
2023-01-29T22:50:23.598Z,70.15
2023-01-29T22:52:53.999Z,70.17
2023-01-29T22:55:22.585Z,70.27
2023-01-29T22:57:53.520Z,70.70
2023-01-29T23:00:21.939Z,70.15
2023-01-29T23:02:49.993Z,70.59
2023-01-29T23:05:18.160Z,70.46
2023-01-29T23:07:46.355Z,70.96
2023-01-29T23:10:15.195Z,70.52
2023-01-29T23:12:44.517Z,70.43
2023-01-29T23:15:13.921Z,71.10
2023-01-29T23:17:41.973Z,71.40
2023-01-29T23:20:10.262Z,71.16
2023-01-29T23:22:38.739Z,71.79
2023-01-29T23:25:07.104Z,71.89
2023-01-29T23:27:34.278Z,72.07
2023-01-29T23:30:02.368Z,71.80
2023-01-29T23:32:32.419Z,71.74
2023-01-29T23:35:00.289Z,71.55
2023-01-29T23:37:28.538Z,71.66
2023-01-29T23:39:56.627Z,71.94
2023-01-29T23:42:24.655Z,71.92
2023-01-29T23:44:52.540Z,72.21
2023-01-29T23:47:20.672Z,72.32
2023-01-29T23:49:50.127Z,72.17
2023-01-29T23:52:18.190Z,72.10
2023-01-29T23:54:46.073Z,72.39
2023-01-29T23:57:14.146Z,72.46
2023-01-29T23:59:42.389Z,72.05
